Time;durP1;ratioP1;P1;durP2;ratioP2;P2;SDS_P1;SDS_P2;PMS_P1;PMS_P2;Temp;Humidity;BMP_temperature;BMP_pressure;BME280_temperature;BME280_humidity;BME280_pressure;Samples;Min_cycle;Max_cycle;Signal;HPM_P1;HPM_P2
2022/05/09 00:02:24;;;;;;;10.20;4.60;;;;;;;11.05;86.04;100683.56;5089791;28;20052;-51
2022/05/09 00:05:13;;;;;;;10.38;4.10;;;;;;;11.00;86.16;100688.00;5088435;28;20048;-50
2022/05/09 00:07:57;;;;;;;8.35;4.05;;;;;;;11.08;85.53;100691.41;5089830;28;20051;-51
2022/05/09 00:10:42;;;;;;;13.07;5.30;;;;;;;10.85;86.83;100690.78;5089218;28;20044;-51
2022/05/09 00:13:26;;;;;;;9.90;4.03;;;;;;;10.90;87.01;100695.09;5088113;28;20056;-51
2022/05/09 00:16:11;;;;;;;11.15;4.63;;;;;;;10.78;87.12;100695.25;5088324;28;20059;-51
2022/05/09 00:18:56;;;;;;;7.97;3.72;;;;;;;10.84;86.77;100695.19;5097031;28;20463;-52
2022/05/09 00:21:42;;;;;;;8.32;3.75;;;;;;;10.67;88.53;100705.00;5087132;28;20048;-52
2022/05/09 00:24:26;;;;;;;8.57;3.92;;;;;;;10.68;88.24;100702.34;5089614;28;20040;-51
2022/05/09 00:27:11;;;;;;;14.48;5.28;;;;;;;10.67;88.53;100700.63;5088464;28;20110;-51
2022/05/09 00:29:55;;;;;;;8.07;3.72;;;;;;;10.75;87.93;100709.25;5097976;28;20039;-51
2022/05/09 00:32:40;;;;;;;13.00;3.70;;;;;;;10.73;87.88;100707.56;5088860;28;20047;-51
2022/05/09 00:35:24;;;;;;;10.48;4.10;;;;;;;10.65;88.44;100706.75;5088288;28;20048;-51
2022/05/09 00:38:08;;;;;;;11.43;4.10;;;;;;;10.60;88.51;100705.97;5091741;28;20097;-51
2022/05/09 00:44:05;;;;;;;9.13;3.75;;;;;;;10.56;89.00;100707.72;5087278;28;20482;-51
2022/05/09 00:46:51;;;;;;;;;;;;;;;10.40;89.82;100706.13;5088272;28;20071;-51
2022/05/09 00:49:45;;;;;;;15.35;4.82;;;;;;;10.35;89.18;100706.19;5088210;28;19920;-51
2022/05/09 00:52:44;;;;;;;7.97;2.90;;;;;;;10.45;88.30;100710.44;5087191;28;20079;-52
2022/05/09 00:55:40;;;;;;;10.13;3.10;;;;;;;10.33;89.19;100714.94;5087552;28;20048;-51
2022/05/09 00:58:30;;;;;;;8.32;3.80;;;;;;;10.37;88.22;100711.44;5090417;28;20036;-51
2022/05/09 01:01:16;;;;;;;8.52;3.05;;;;;;;10.34;88.04;100716.69;5088626;28;20402;-51
2022/05/09 01:04:05;;;;;;;8.18;3.30;;;;;;;10.10;90.00;100720.34;5090087;28;20055;-51
2022/05/09 01:06:49;;;;;;;11.60;4.13;;;;;;;10.13;89.58;100720.34;5089491;28;20052;-50
2022/05/09 01:09:33;;;;;;;9.23;3.70;;;;;;;10.15;89.54;100726.44;5086058;28;20741;-51
2022/05/09 01:12:25;;;;;;;7.88;3.55;;;;;;;10.20;88.70;100722.88;5091987;28;20048;-51
2022/05/09 01:15:13;;;;;;;7.50;3.08;;;;;;;10.19;88.97;100729.00;5091127;28;20055;-51
2022/05/09 01:18:00;;;;;;;10.48;3.25;;;;;;;10.21;88.27;100729.88;5099330;28;20082;-51
2022/05/09 01:20:45;;;;;;;6.10;2.65;;;;;;;10.02;89.72;100728.28;5091601;28;20047;-51
2022/05/09 01:23:34;;;;;;;10.55;2.90;;;;;;;10.07;89.34;100727.38;5093778;28;20059;-51
2022/05/09 01:26:18;;;;;;;7.72;2.92;;;;;;;9.88;90.78;100733.63;5089343;28;20040;-51
2022/05/09 01:29:12;;;;;;;8.05;2.85;;;;;;;9.76;91.98;100738.94;5087180;28;20051;-51
2022/05/09 01:31:57;;;;;;;7.65;2.90;;;;;;;9.78;91.77;100730.22;5087687;28;20172;-51
2022/05/09 01:34:50;;;;;;;9.32;3.13;;;;;;;9.70;92.27;100736.38;5086332;28;20064;-51
2022/05/09 01:37:37;;;;;;;12.65;3.20;;;;;;;9.74;92.25;100735.47;5086521;28;20074;-51
2022/05/09 01:40:22;;;;;;;11.02;3.25;;;;;;;9.86;90.75;100734.53;5086569;28;20048;-51
2022/05/09 01:43:07;;;;;;;13.52;2.95;;;;;;;9.58;92.73;100734.69;5085208;28;20044;-51
2022/05/09 01:45:52;;;;;;;9.52;3.17;;;;;;;9.48;93.77;100743.47;5085375;28;20048;-51
2022/05/09 01:51:42;;;;;;;9.20;2.60;;;;;;;9.56;92.42;100739.94;5085899;28;20093;-51
2022/05/09 01:54:27;;;;;;;12.38;2.85;;;;;;;9.45;93.23;100741.75;5086407;28;20457;-51
2022/05/09 01:57:13;;;;;;;9.13;2.90;;;;;;;9.20;95.01;100733.19;5087032;28;20056;-51
2022/05/09 01:59:58;;;;;;;9.70;3.58;;;;;;;9.25;94.65;100739.25;5089333;28;20467;-51
2022/05/09 02:02:43;;;;;;;6.15;2.90;;;;;;;9.31;94.52;100733.97;5087960;28;20051;-51
2022/05/09 02:05:27;;;;;;;5.80;2.55;;;;;;;9.32;94.08;100732.22;5088650;28;20434;-51
2022/05/09 02:08:12;;;;;;;6.30;2.50;;;;;;;9.32;93.48;100740.94;5086239;28;20063;-51
2022/05/09 02:10:56;;;;;;;9.43;3.25;;;;;;;9.27;93.78;100734.03;5084745;28;20043;-50
2022/05/09 02:13:41;;;;;;;8.32;2.85;;;;;;;9.20;93.98;100734.94;5087805;28;20052;-51
2022/05/09 02:16:26;;;;;;;9.18;2.50;;;;;;;9.35;92.41;100737.44;5085756;28;20146;-51
2022/05/09 02:19:11;;;;;;;9.25;2.47;;;;;;;9.27;92.50;100737.50;5085716;28;20044;-51
2022/05/09 02:21:56;;;;;;;7.35;2.78;;;;;;;9.26;92.74;100738.38;5087593;28;20044;-50
2022/05/09 02:24:41;;;;;;;7.25;3.50;;;;;;;9.15;93.50;100737.56;5085149;28;20414;-51
2022/05/09 02:27:25;;;;;;;6.82;3.30;;;;;;;8.91;94.90;100741.13;5087522;28;20083;-51
2022/05/09 02:30:10;;;;;;;8.35;3.20;;;;;;;9.07;94.46;100734.13;5086329;28;20056;-51
2022/05/09 02:32:55;;;;;;;6.80;2.78;;;;;;;9.06;93.97;100733.22;5086031;28;20073;-50
2022/05/09 02:35:40;;;;;;;9.50;3.78;;;;;;;9.07;94.94;100739.34;5084529;28;20452;-51
2022/05/09 02:38:28;;;;;;;8.77;3.40;;;;;;;8.98;95.29;100735.00;5086316;28;20087;-51
2022/05/09 02:41:15;;;;;;;9.82;4.32;;;;;;;9.00;95.76;100746.34;5085399;28;20097;-51
2022/05/09 02:43:59;;;;;;;8.38;3.30;;;;;;;9.20;93.90;100748.88;5084172;28;20044;-51
2022/05/09 02:46:44;;;;;;;8.57;2.78;;;;;;;9.00;95.70;100748.06;5083952;28;20052;-50
2022/05/09 02:49:28;;;;;;;6.43;3.25;;;;;;;8.99;96.68;100744.59;5090927;28;20075;-51
2022/05/09 02:52:13;;;;;;;6.78;3.00;;;;;;;8.98;97.01;100757.66;5086095;28;20044;-51
2022/05/09 02:54:57;;;;;;;10.38;3.03;;;;;;;9.06;96.55;100758.50;5084904;28;20043;-51
2022/05/09 02:57:42;;;;;;;5.85;3.33;;;;;;;9.12;95.50;100755.84;5085441;28;20052;-51
2022/05/09 03:00:29;;;;;;;8.23;3.20;;;;;;;9.09;95.87;100767.19;5084860;28;20083;-51
2022/05/09 03:06:17;;;;;;;7.50;3.50;;;;;;;8.92;98.14;100765.53;5084489;28;20143;-51
2022/05/09 03:09:02;;;;;;;6.55;2.63;;;;;;;8.88;98.54;100765.53;5082182;28;20055;-50
2022/05/09 03:11:47;;;;;;;11.50;3.75;;;;;;;8.81;100.00;100773.41;5085849;28;20048;-51
2022/05/09 03:14:31;;;;;;;7.85;3.50;;;;;;;8.66;100.00;100774.28;5082388;28;20052;-51
2022/05/09 03:17:16;;;;;;;6.07;2.95;;;;;;;8.69;100.00;100779.50;5087105;28;20039;-51
2022/05/09 03:20:02;;;;;;;8.02;4.13;;;;;;;8.53;100.00;100777.78;5087950;28;20086;-50
2022/05/09 03:22:48;;;;;;;9.50;3.22;;;;;;;8.56;100.00;100783.00;5083972;28;20123;-51
2022/05/09 03:25:33;;;;;;;6.78;3.45;;;;;;;8.60;100.00;100780.38;5083385;28;20379;-51
2022/05/09 03:28:24;;;;;;;8.55;3.38;;;;;;;8.48;100.00;100785.63;5082638;28;20048;-52
2022/05/09 03:31:13;;;;;;;6.25;3.42;;;;;;;8.58;100.00;100789.97;5086027;28;20037;-51
2022/05/09 03:33:57;;;;;;;11.63;3.70;;;;;;;8.52;100.00;100789.13;5088260;28;20052;-50
2022/05/09 03:36:42;;;;;;;12.68;4.47;;;;;;;8.26;100.00;100789.97;5090326;28;20055;-51
2022/05/09 03:39:26;;;;;;;11.60;5.35;;;;;;;8.25;100.00;100795.16;5088033;28;20044;-51
2022/05/09 03:42:10;;;;;;;10.20;3.80;;;;;;;8.35;100.00;100799.50;5089584;28;20097;-51
2022/05/09 03:44:54;;;;;;;11.77;4.82;;;;;;;8.35;100.00;100803.03;5085507;28;20052;-51
2022/05/09 03:47:40;;;;;;;12.45;4.63;;;;;;;8.38;100.00;100800.44;5084425;28;20044;-51
2022/05/09 03:50:28;;;;;;;9.50;5.30;;;;;;;8.55;100.00;100794.34;5088388;28;20451;-51
2022/05/09 03:53:12;;;;;;;10.63;4.53;;;;;;;8.29;100.00;100805.63;5086907;28;20421;-51
2022/05/09 03:55:57;;;;;;;10.98;5.40;;;;;;;8.40;100.00;100811.75;5087998;28;20055;-50
2022/05/09 03:58:42;;;;;;;8.20;4.13;;;;;;;8.48;100.00;100810.84;5087133;28;20051;-50
2022/05/09 04:01:26;;;;;;;9.65;4.38;;;;;;;8.37;100.00;100811.69;5091042;28;20551;-51
2022/05/09 04:04:11;;;;;;;11.70;4.30;;;;;;;8.42;100.00;100806.53;5086172;28;20064;-50
2022/05/09 04:06:55;;;;;;;8.93;4.05;;;;;;;8.43;100.00;100809.13;5087096;28;20143;-51
2022/05/09 04:09:40;;;;;;;10.50;4.78;;;;;;;8.84;100.00;100796.91;5083381;28;20056;-50
2022/05/09 04:12:24;;;;;;;19.83;5.00;;;;;;;8.62;100.00;100803.91;5087285;28;20040;-50
2022/05/09 04:18:13;;;;;;;;;;;;;;;9.99;100.00;100801.59;5086499;28;20052;-51
2022/05/09 04:20:57;;;;;;;11.85;4.90;;;;;;;10.09;100.00;100811.13;5089324;28;19927;-51
2022/05/09 04:23:42;;;;;;;10.15;4.78;;;;;;;10.35;100.00;100804.84;5087244;28;20059;-50
2022/05/09 04:26:27;;;;;;;7.15;4.40;;;;;;;10.75;96.45;100811.44;5087699;28;20106;-51
2022/05/09 04:29:12;;;;;;;16.40;5.20;;;;;;;11.23;95.10;100816.19;5085352;28;20079;-51
2022/05/09 04:31:56;;;;;;;8.80;3.78;;;;;;;11.64;92.20;100806.94;5086629;28;20048;-51
2022/05/09 04:34:41;;;;;;;10.25;3.83;;;;;;;11.92;88.88;100817.91;5085993;28;20052;-51
2022/05/09 04:37:26;;;;;;;12.60;4.80;;;;;;;11.77;86.74;100826.88;5085514;28;20052;-51
2022/05/09 04:40:11;;;;;;;6.95;4.18;;;;;;;12.23;84.35;100817.47;5086337;28;20060;-51
2022/05/09 04:42:57;;;;;;;13.43;4.82;;;;;;;12.07;83.80;100824.72;5087762;28;20052;-51
2022/05/09 04:45:42;;;;;;;11.60;5.55;;;;;;;12.10;82.40;100832.53;5087573;28;20044;-51
2022/05/09 04:48:29;;;;;;;9.80;5.35;;;;;;;12.37;82.92;100823.34;5090007;28;20055;-51
2022/05/09 04:51:15;;;;;;;9.00;4.35;;;;;;;12.76;79.75;100821.81;5081940;28;20044;-51
2022/05/09 04:54:00;;;;;;;9.48;5.03;;;;;;;12.83;78.74;100826.06;5087385;28;20098;-51
2022/05/09 04:56:44;;;;;;;11.55;5.03;;;;;;;13.01;76.96;100819.59;5085866;28;20051;-50
2022/05/09 04:59:29;;;;;;;8.27;4.68;;;;;;;13.10;78.04;100832.56;5086082;28;20060;-51
2022/05/09 05:02:13;;;;;;;10.02;4.50;;;;;;;13.18;77.32;100824.53;5090993;28;20089;-51
2022/05/09 05:04:58;;;;;;;7.65;4.13;;;;;;;13.09;75.52;100828.19;5087075;28;20048;-51
2022/05/09 05:07:42;;;;;;;10.23;4.07;;;;;;;13.52;76.22;100837.06;5091133;28;20058;-51
2022/05/09 05:10:28;;;;;;;11.45;5.15;;;;;;;13.39;76.34;100843.44;5091670;28;20151;-51
2022/05/09 05:13:12;;;;;;;11.73;4.97;;;;;;;13.40;74.04;100835.53;5088410;28;20069;-51
2022/05/09 05:15:57;;;;;;;9.52;4.80;;;;;;;13.58;74.94;100844.78;5090945;28;20074;-52
2022/05/09 05:18:43;;;;;;;10.43;5.35;;;;;;;14.08;72.44;100841.97;5091224;28;20048;-51
2022/05/09 05:21:28;;;;;;;9.00;4.15;;;;;;;14.78;68.47;100842.03;5087170;28;20028;-52
2022/05/09 05:24:12;;;;;;;8.38;4.57;;;;;;;15.06;67.03;100836.88;5087473;28;20655;-50
2022/05/09 05:26:56;;;;;;;9.50;4.22;;;;;;;14.64;69.56;100842.38;5084447;28;20048;-51
2022/05/09 05:29:44;;;;;;;10.93;4.78;;;;;;;15.14;67.74;100848.06;5087594;28;20056;-51
2022/05/09 05:32:31;;;;;;;9.63;4.65;;;;;;;15.72;64.74;100841.16;5087204;28;20098;-51
2022/05/09 05:35:23;;;;;;;11.85;4.78;;;;;;;15.65;62.52;100844.88;5087536;28;20040;-51
2022/05/09 05:38:08;;;;;;;8.48;4.85;;;;;;;15.79;63.27;100852.41;5086315;28;20039;-51
2022/05/09 05:40:57;;;;;;;7.20;3.83;;;;;;;15.83;63.68;100859.34;5087418;28;20107;-52
2022/05/09 05:43:41;;;;;;;8.88;4.40;;;;;;;16.10;62.12;100857.63;5087973;28;20043;-51
2022/05/09 05:46:26;;;;;;;9.40;4.38;;;;;;;15.79;63.13;100858.53;5089944;28;20043;-51
2022/05/09 05:49:10;;;;;;;9.00;4.38;;;;;;;16.44;61.65;100859.19;5087641;28;20376;-52
2022/05/09 05:51:58;;;;;;;16.67;5.45;;;;;;;15.97;61.42;100856.28;5087753;28;20060;-52
2022/05/09 05:54:45;;;;;;;12.35;5.47;;;;;;;16.43;61.96;100850.38;5084924;28;20043;-52
2022/05/09 05:57:32;;;;;;;13.40;4.53;;;;;;;16.44;61.33;100851.25;5086751;28;20160;-52
2022/05/09 06:00:21;;;;;;;8.10;4.38;;;;;;;16.51;61.66;100853.66;5093527;28;20098;-52
2022/05/09 06:03:07;;;;;;;10.18;4.65;;;;;;;16.40;63.34;100861.06;5087185;28;20043;-52
2022/05/09 06:05:52;;;;;;;9.55;4.78;;;;;;;16.35;62.78;100861.22;5087145;28;20036;-53
2022/05/09 06:08:38;;;;;;;8.00;4.65;;;;;;;16.08;62.86;100859.44;5088397;28;20047;-52
2022/05/09 06:11:23;;;;;;;8.77;4.93;;;;;;;16.20;62.42;100864.34;5091335;28;20055;-51
2022/05/09 06:14:11;;;;;;;7.80;3.90;;;;;;;17.13;60.62;100856.88;5084935;28;20048;-53
2022/05/09 06:16:55;;;;;;;8.70;3.92;;;;;;;17.05;60.08;100865.94;5084058;28;20744;-51
2022/05/09 06:19:40;;;;;;;10.38;4.68;;;;;;;17.58;58.50;100867.59;5083388;28;20535;-52
2022/05/09 06:22:25;;;;;;;7.88;4.63;;;;;;;16.80;60.45;100865.06;5083814;28;20043;-52
2022/05/09 06:25:12;;;;;;;10.98;5.03;;;;;;;16.30;62.07;100873.72;5082824;28;20044;-51
2022/05/09 06:27:58;;;;;;;9.05;5.65;;;;;;;16.62;62.87;100860.38;5085595;28;20056;-52
2022/05/09 06:30:43;;;;;;;7.90;3.95;;;;;;;17.82;59.74;100868.47;5082754;28;20056;-51
2022/05/09 06:33:28;;;;;;;9.52;4.80;;;;;;;17.96;57.85;100867.94;5083998;28;20043;-52
2022/05/09 06:36:12;;;;;;;8.27;4.50;;;;;;;17.47;57.41;100867.97;5090017;28;20131;-51
2022/05/09 06:38:57;;;;;;;10.65;5.78;;;;;;;17.78;57.08;100871.28;5085503;28;20051;-52
2022/05/09 06:41:41;;;;;;;7.55;3.88;;;;;;;18.75;56.71;100869.19;5081323;28;20490;-52
2022/05/09 06:44:26;;;;;;;9.88;4.90;;;;;;;18.86;54.46;100871.38;5083577;28;20367;-52
2022/05/09 06:47:11;;;;;;;8.25;4.85;;;;;;;18.38;54.68;100875.09;5080726;28;20040;-51
2022/05/09 06:50:00;;;;;;;8.65;4.22;;;;;;;18.68;53.44;100880.94;5077252;28;20055;-53
2022/05/09 06:52:45;;;;;;;6.97;3.70;;;;;;;18.55;55.47;100875.25;5085925;28;20721;-51
2022/05/09 06:55:30;;;;;;;6.50;3.50;;;;;;;18.43;56.33;100878.44;5080900;28;20080;-51
2022/05/09 06:58:25;;;;;;;6.32;3.85;;;;;;;18.75;53.59;100884.22;5082180;28;20080;-51
2022/05/09 07:01:18;;;;;;;7.78;3.70;;;;;;;19.56;52.83;100873.59;5078681;28;20052;-53
2022/05/09 07:04:03;;;;;;;;;;;;;;;19.36;50.94;100876.25;5080981;28;20421;-54
2022/05/09 07:06:48;;;;;;;8.13;4.22;;;;;;;20.16;50.43;100873.47;5109695;27;19950;-52
2022/05/09 07:09:32;;;;;;;6.85;4.20;;;;;;;19.53;51.09;100868.41;5085700;28;20118;-53
2022/05/09 07:12:16;;;;;;;8.23;4.10;;;;;;;19.71;50.72;100874.69;5089642;28;20047;-53
2022/05/09 07:15:05;;;;;;;7.68;3.42;;;;;;;19.97;49.18;100880.59;5084780;28;20048;-53
2022/05/09 07:17:50;;;;;;;8.35;3.75;;;;;;;20.24;49.94;100879.25;5087353;28;20052;-54
2022/05/09 07:20:35;;;;;;;8.85;4.22;;;;;;;19.69;51.15;100888.97;5088544;28;20040;-52
2022/05/09 07:23:20;;;;;;;8.88;3.65;;;;;;;19.96;48.78;100882.41;5089475;28;20425;-52
2022/05/09 07:26:04;;;;;;;9.15;4.55;;;;;;;19.88;49.18;100892.50;5090910;28;20130;-52
2022/05/09 07:28:49;;;;;;;10.30;4.28;;;;;;;20.53;49.86;100887.66;5088905;28;20052;-51
2022/05/09 07:31:33;;;;;;;6.65;3.83;;;;;;;19.66;50.63;100886.47;5089546;28;21814;-51
2022/05/09 07:34:18;;;;;;;7.18;4.05;;;;;;;20.67;48.66;100890.53;5088087;28;20048;-52
2022/05/09 07:37:02;;;;;;;6.82;3.85;;;;;;;20.58;47.22;100882.97;5089164;28;20426;-53
2022/05/09 07:39:47;;;;;;;7.65;3.88;;;;;;;20.19;48.42;100889.28;5088109;28;20059;-52
2022/05/09 07:42:34;;;;;;;8.88;4.55;;;;;;;21.35;47.01;100887.06;5087293;28;20072;-54
2022/05/09 07:45:19;;;;;;;4.53;3.25;;;;;;;21.53;46.12;100885.22;5096658;28;20097;-53
2022/05/09 07:48:04;;;;;;;6.93;3.53;;;;;;;21.01;46.71;100888.78;5089010;28;20067;-52
2022/05/09 07:50:49;;;;;;;10.85;3.60;;;;;;;21.23;46.72;100886.75;5092321;28;20044;-52
2022/05/09 07:53:34;;;;;;;6.57;4.00;;;;;;;21.63;45.18;100891.78;5088974;28;20093;-53
2022/05/09 07:56:19;;;;;;;10.52;4.70;;;;;;;20.83;46.27;100893.28;5089999;28;20087;-52
2022/05/09 07:59:04;;;;;;;11.98;3.90;;;;;;;20.68;47.55;100891.38;5088141;28;20143;-53
2022/05/09 08:01:49;;;;;;;7.70;3.50;;;;;;;21.72;45.88;100883.28;5089226;28;20050;-52
2022/05/09 08:04:34;;;;;;;7.82;3.63;;;;;;;21.82;45.13;100887.16;5091943;28;20040;-52
2022/05/09 08:07:19;;;;;;;5.35;3.65;;;;;;;22.03;45.53;100887.78;5087817;28;20498;-52
2022/05/09 08:10:06;;;;;;;5.85;3.80;;;;;;;21.45;45.40;100880.31;5088892;28;20055;-52
2022/05/09 08:12:52;;;;;;;7.20;3.80;;;;;;;21.45;44.54;100888.31;5090284;28;20044;-54
2022/05/09 08:15:37;;;;;;;7.30;4.38;;;;;;;20.94;45.11;100887.41;5088802;28;20036;-52
2022/05/09 08:18:23;;;;;;;7.72;3.33;;;;;;;21.82;44.52;100888.97;5087664;28;20055;-53
2022/05/09 08:21:09;;;;;;;6.10;3.65;;;;;;;21.63;44.41;100878.47;5088274;28;20044;-52
2022/05/09 08:23:54;;;;;;;6.53;3.40;;;;;;;22.25;43.11;100884.81;5088528;28;20052;-53
2022/05/09 08:26:39;;;;;;;5.53;3.35;;;;;;;22.31;42.55;100891.59;5088806;28;20052;-52
2022/05/09 08:29:23;;;;;;;8.90;3.65;;;;;;;21.80;44.12;100890.84;5089516;28;20044;-53
2022/05/09 08:32:07;;;;;;;7.43;3.78;;;;;;;20.69;46.31;100893.09;5089224;28;20044;-53
2022/05/09 08:34:53;;;;;;;7.68;3.70;;;;;;;20.91;46.30;100885.75;5090151;28;20582;-52
2022/05/09 08:37:39;;;;;;;8.63;3.72;;;;;;;21.40;45.48;100880.53;5094691;28;20082;-53
2022/05/09 08:40:33;;;;;;;8.13;3.72;;;;;;;20.69;46.20;100898.41;5086375;28;20043;-52
2022/05/09 08:43:40;;;;;;;6.82;3.78;;;;;;;20.49;45.87;100896.72;5088344;28;20052;-52
2022/05/09 08:46:38;;;;;;;5.88;3.50;;;;;;;20.99;44.77;100896.00;5091122;28;20044;-53
2022/05/09 08:49:59;;;;;;;9.23;3.88;;;;;;;21.57;42.98;100894.78;5088598;28;20730;-53
2022/05/09 08:52:50;;;;;;;6.43;3.30;;;;;;;21.32;44.23;100895.19;5088330;28;20434;-52
2022/05/09 08:55:41;;;;;;;8.50;3.83;;;;;;;21.26;43.31;100893.72;5087594;28;20067;-52
2022/05/09 08:58:47;;;;;;;5.38;2.53;;;;;;;21.18;43.99;100896.75;5088843;28;20109;-53
2022/05/09 09:01:39;;;;;;;9.38;3.78;;;;;;;21.11;45.05;100895.38;5082167;28;20052;-53
2022/05/09 09:04:32;;;;;;;8.25;4.00;;;;;;;21.56;44.21;100885.94;5087919;28;20048;-52
2022/05/09 09:07:41;;;;;;;6.95;3.15;;;;;;;21.72;43.59;100896.63;5087310;28;20653;-54
2022/05/09 09:10:32;;;;;;;7.95;3.65;;;;;;;21.30;41.96;100897.94;5080488;28;20060;-53
2022/05/09 09:13:22;;;;;;;7.47;2.85;;;;;;;21.41;41.99;100900.06;5085397;28;20702;-53
2022/05/09 09:16:16;;;;;;;5.78;3.20;;;;;;;22.07;40.86;100900.03;5091259;28;20055;-53
2022/05/09 09:19:18;;;;;;;5.97;2.80;;;;;;;22.11;41.00;100898.91;5088712;28;20064;-52
2022/05/09 09:22:38;;;;;;;7.03;2.97;;;;;;;21.45;41.02;100902.50;5087098;28;20055;-53
2022/05/09 09:25:33;;;;;;;5.75;2.83;;;;;;;20.76;41.44;100911.31;5088363;28;20048;-52
2022/05/09 09:28:27;;;;;;;6.78;2.22;;;;;;;20.78;42.66;100908.59;5084830;28;20040;-53
2022/05/09 09:31:15;;;;;;;8.45;3.95;;;;;;;21.45;42.11;100899.84;5085451;28;20076;-54
2022/05/09 09:34:26;;;;;;;7.05;3.17;;;;;;;22.03;40.26;100905.59;5085642;28;20048;-53
2022/05/09 09:37:35;;;;;;;4.93;3.15;;;;;;;21.32;41.50;100896.06;5086290;28;20081;-52
2022/05/09 09:40:20;;;;;;;5.68;3.08;;;;;;;22.08;40.75;100893.72;5084640;28;20054;-53
2022/05/09 09:43:05;;;;;;;4.35;2.17;;;;;;;21.44;38.36;100884.75;5086171;28;20051;-53
2022/05/09 09:46:03;;;;;;;7.53;2.25;;;;;;;22.24;40.68;100896.44;5084964;28;20494;-52
2022/05/09 09:49:02;;;;;;;7.25;3.03;;;;;;;21.96;39.58;100899.75;5086014;28;20060;-53
2022/05/09 09:51:48;;;;;;;5.32;2.30;;;;;;;22.37;39.02;100888.59;5085160;28;20048;-52
2022/05/09 09:54:35;;;;;;;6.35;2.78;;;;;;;22.14;38.12;100897.88;5085021;28;20048;-53
2022/05/09 09:57:25;;;;;;;4.28;2.60;;;;;;;22.38;38.23;100893.81;5086642;28;20060;-53
2022/05/09 10:00:19;;;;;;;7.38;2.60;;;;;;;22.90;37.05;100887.25;5085819;28;20132;-53
2022/05/09 10:03:27;;;;;;;8.82;2.67;;;;;;;22.44;37.91;100895.28;5085755;28;20040;-53
2022/05/09 10:06:14;;;;;;;4.53;2.05;;;;;;;22.52;37.19;100889.50;5085399;28;20080;-52
2022/05/09 10:09:04;;;;;;;7.45;2.20;;;;;;;22.56;37.62;100888.41;5089355;28;20047;-53
2022/05/09 10:11:48;;;;;;;6.00;2.45;;;;;;;22.37;37.05;100884.13;5086620;28;20044;-52
2022/05/09 10:14:36;;;;;;;4.18;2.15;;;;;;;22.51;37.99;100880.63;5087449;28;20043;-54
2022/05/09 10:17:26;;;;;;;3.83;1.92;;;;;;;22.60;35.25;100880.09;5087360;28;20064;-53
2022/05/09 10:20:34;;;;;;;7.38;2.92;;;;;;;21.63;36.99;100876.66;5085680;28;20047;-53
2022/05/09 10:26:28;;;;;;;6.05;2.28;;;;;;;22.25;36.01;100876.78;5087132;28;20046;-52
2022/05/09 10:29:17;;;;;;;6.97;2.50;;;;;;;21.62;37.17;100877.59;5085479;28;20052;-54
2022/05/09 10:32:07;;;;;;;5.85;2.17;;;;;;;21.78;37.16;100868.78;5085308;28;20058;-53
2022/05/09 10:35:08;;;;;;;5.55;2.00;;;;;;;22.11;37.62;100868.69;5086730;28;20048;-52
2022/05/09 10:38:01;;;;;;;5.45;1.63;;;;;;;22.64;35.80;100860.28;5079315;28;20044;-53
2022/05/09 10:41:03;;;;;;;4.43;1.80;;;;;;;23.13;35.92;100861.00;5085625;28;20052;-53
2022/05/09 10:43:58;;;;;;;6.15;1.90;;;;;;;22.35;34.60;100861.13;5086511;28;20882;-53
2022/05/09 10:46:53;;;;;;;10.32;2.30;;;;;;;22.44;35.30;100863.25;5086781;28;20044;-53
2022/05/09 10:49:50;;;;;;;6.75;2.03;;;;;;;23.21;34.47;100851.59;5086470;28;20056;-52
2022/05/09 10:52:46;;;;;;;6.28;2.03;;;;;;;23.48;33.30;100849.00;5085853;28;20048;-53
2022/05/09 10:55:40;;;;;;;4.95;1.67;;;;;;;23.69;33.98;100859.34;5085599;28;20044;-52
2022/05/09 10:58:33;;;;;;;6.60;1.88;;;;;;;23.51;33.63;100853.31;5084210;28;20564;-53
2022/05/09 11:01:39;;;;;;;4.25;1.60;;;;;;;23.23;32.98;100851.47;5084634;28;20036;-53
2022/05/09 11:04:24;;;;;;;5.43;1.48;;;;;;;23.04;32.98;100852.63;5083719;28;20403;-53
2022/05/09 11:07:09;;;;;;;5.45;1.67;;;;;;;23.39;33.27;100841.56;5085257;28;20044;-53
2022/05/09 11:10:10;;;;;;;6.82;1.98;;;;;;;23.22;32.23;100833.72;5084153;28;20059;-53
2022/05/09 11:13:06;;;;;;;7.63;1.97;;;;;;;22.89;32.48;100847.31;5085363;28;20075;-53
2022/05/09 11:16:09;;;;;;;7.00;1.50;;;;;;;22.87;33.84;100845.56;5084409;28;20306;-53
2022/05/09 11:18:56;;;;;;;4.63;1.65;;;;;;;22.50;32.83;100844.22;5085225;28;20048;-53
2022/05/09 11:21:53;;;;;;;7.90;1.85;;;;;;;22.84;32.85;100840.41;5083225;28;20134;-53
2022/05/09 11:25:03;;;;;;;7.78;1.83;;;;;;;23.35;31.76;100839.19;5085630;28;20055;-52
2022/05/09 11:28:00;;;;;;;3.38;1.40;;;;;;;23.22;33.12;100823.91;5083990;28;20044;-53
2022/05/09 11:30:50;;;;;;;7.63;1.70;;;;;;;23.18;31.75;100837.56;5084299;28;20090;-53
2022/05/09 11:34:01;;;;;;;5.45;1.70;;;;;;;22.74;32.29;100841.91;5084072;28;20278;-52
2022/05/09 11:36:59;;;;;;;4.10;1.50;;;;;;;23.23;31.67;100827.44;5083005;28;20055;-53
2022/05/09 11:40:13;;;;;;;6.68;1.55;;;;;;;23.26;30.58;100819.22;5082804;28;20129;-53
2022/05/09 11:43:30;;;;;;;4.97;1.65;;;;;;;23.98;30.07;100817.34;5093055;28;20044;-53
2022/05/09 11:46:17;;;;;;;9.10;2.38;;;;;;;24.36;29.98;100817.50;5082688;28;20112;-53
2022/05/09 11:49:07;;;;;;;4.20;1.30;;;;;;;24.14;30.61;100809.16;5084980;28;20048;-52
2022/05/09 11:51:58;;;;;;;6.35;1.50;;;;;;;23.72;32.01;100819.03;5083710;28;20078;-52
2022/05/09 11:54:48;;;;;;;4.25;1.40;;;;;;;23.38;30.78;100813.13;5087948;28;20052;-53
2022/05/09 11:57:37;;;;;;;4.40;1.45;;;;;;;23.10;31.59;100811.28;5091159;28;20060;-52
2022/05/09 12:00:25;;;;;;;2.47;1.40;;;;;;;23.27;31.33;100805.78;5090238;28;20419;-53
2022/05/09 12:03:13;;;;;;;4.10;1.63;;;;;;;23.02;31.41;100806.44;5088937;28;20048;-53
2022/05/09 12:06:03;;;;;;;4.47;1.85;;;;;;;23.17;31.25;100812.66;5089917;28;20060;-54
2022/05/09 12:08:48;;;;;;;5.85;1.60;;;;;;;23.60;31.86;100801.09;5089550;28;20123;-53
2022/05/09 12:11:45;;;;;;;8.07;2.80;;;;;;;23.59;31.97;100807.38;5087764;28;20044;-54
2022/05/09 12:14:43;;;;;;;5.82;2.00;;;;;;;23.54;31.74;100803.19;5089096;28;20055;-53
2022/05/09 12:17:36;;;;;;;3.33;1.48;;;;;;;23.88;32.03;100800.19;5088554;28;20062;-52
2022/05/09 12:20:26;;;;;;;6.10;1.50;;;;;;;23.63;30.90;100795.53;5082819;28;20467;-53
2022/05/09 12:23:32;;;;;;;3.15;1.63;;;;;;;23.31;30.39;100795.75;5115699;27;20052;-53
2022/05/09 12:26:36;;;;;;;3.55;1.83;;;;;;;23.72;31.14;100793.16;5087699;28;20055;-52
2022/05/09 12:29:24;;;;;;;3.20;1.40;;;;;;;23.87;30.41;100790.44;5084197;28;20116;-53
2022/05/09 12:32:10;;;;;;;4.05;1.33;;;;;;;24.01;30.90;100790.38;5085669;28;20093;-53
2022/05/09 12:34:58;;;;;;;4.18;1.55;;;;;;;24.37;31.73;100779.03;5083596;28;20052;-52
2022/05/09 12:37:45;;;;;;;6.15;1.70;;;;;;;23.58;30.58;100781.59;5083139;28;20497;-53
2022/05/09 12:40:30;;;;;;;4.47;2.13;;;;;;;23.07;30.73;100774.97;5085155;28;20052;-53
2022/05/09 12:43:15;;;;;;;3.38;1.80;;;;;;;22.98;30.17;100778.19;5086743;28;20044;-54
2022/05/09 12:46:03;;;;;;;7.30;2.80;;;;;;;22.98;30.53;100772.00;5083237;28;20044;-52
2022/05/09 12:48:48;;;;;;;4.47;1.30;;;;;;;23.63;29.69;100775.00;5083796;28;20062;-53
2022/05/09 12:51:41;;;;;;;3.75;1.15;;;;;;;23.37;30.60;100770.44;5083803;28;20098;-53
2022/05/09 12:54:28;;;;;;;3.25;1.52;;;;;;;23.58;30.01;100762.88;5083211;28;20039;-53
2022/05/09 12:57:13;;;;;;;4.10;1.48;;;;;;;23.65;29.12;100761.53;5085996;28;20063;-52
2022/05/09 12:59:57;;;;;;;4.60;1.48;;;;;;;23.60;30.38;100767.19;5084071;28;20044;-52
2022/05/09 13:02:44;;;;;;;4.72;1.60;;;;;;;22.93;29.44;100753.56;5084351;28;20580;-52
2022/05/09 13:05:47;;;;;;;2.20;1.20;;;;;;;23.50;29.28;100748.19;5084924;28;20040;-53
2022/05/09 13:08:36;;;;;;;;;;;;;;;23.59;30.51;100752.06;5086982;28;20784;-52
2022/05/09 13:11:24;;;;;;;9.82;1.85;;;;;;;23.63;30.64;100752.75;5084698;28;19920;-53
2022/05/09 13:14:22;;;;;;;6.40;2.08;;;;;;;23.06;30.86;100745.66;5087018;28;20052;-51
2022/05/09 13:17:20;;;;;;;5.75;1.52;;;;;;;23.22;31.00;100743.75;5086808;28;20049;-51
2022/05/09 13:20:09;;;;;;;6.25;1.40;;;;;;;22.73;31.77;100738.75;5092471;28;20039;-51